This is the latest recevied weather packets stored in our database for station/object KF0FSA. If no packets are shown the sender has not sent any weather packets the latest 10 day(s).
| Time | Temp. | Humidity | Pressure | Rain* | Wind** | Luminosity | Snow |
|---|---|---|---|---|---|---|---|
| 1777676773 | 12.78° C | 33% | 964.8 hPa | 0 mm | - | 343 W/m² | - |
| 1777676598 | 12.78° C | 34% | 964.8 hPa | 0 mm | - | 382 W/m² | - |
| 1777676173 | 12.78° C | 35% | 964.9 hPa | 0 mm | - | 205 W/m² | - |
| 1777675874 | 12.22° C | 35% | 964.8 hPa | 0 mm | - | 411 W/m² | - |
| 1777675573 | 11.67° C | 34% | 965.1 hPa | 0 mm | - | 124 W/m² | - |
| 1777675398 | 12.22° C | 33% | 965.1 hPa | 0 mm | - | 107 W/m² | - |
| 1777674973 | 12.22° C | 32% | 964.8 hPa | 0 mm | - | 445 W/m² | - |
| 1777674798 | 12.22° C | 34% | 964.9 hPa | 0 mm | - | 147 W/m² | - |
| 1777674386 | 12.22° C | 35% | 965.1 hPa | 0 mm | - | 137 W/m² | - |
| 1777674076 | 12.22° C | 33% | 964.8 hPa | 0 mm | - | 410 W/m² | - |
| 1777673774 | 12.22° C | 35% | 965.1 hPa | 0 mm | - | 271 W/m² | - |
| 1777673471 | 12.22° C | 33% | 965.1 hPa | 0 mm | - | 147 W/m² | - |
| 1777673171 | 12.22° C | 33% | 964.8 hPa | 0 mm | - | 358 W/m² | - |
| 1777672878 | 12.78° C | 33% | 965.1 hPa | 0 mm | - | 162 W/m² | - |
| 1777672571 | 13.33° C | 34% | 965 hPa | 0 mm | - | 245 W/m² | - |
| 1777672271 | 13.33° C | 32% | 964.7 hPa | 0 mm | - | 656 W/m² | - |
| 1777671968 | 13.33° C | 33% | 964.9 hPa | 0 mm | - | 485 W/m² | - |
| 1777671668 | 12.78° C | 34% | 964.8 hPa | 0 mm | - | 672 W/m² | - |
| 1777671493 | 12.78° C | 34% | 964.8 hPa | 0 mm | - | 696 W/m² | - |
| 1777671068 | 12.78° C | 35% | 964.8 hPa | 0 mm | - | 719 W/m² | - |
| 1777670893 | 12.78° C | 35% | 965 hPa | 0 mm | - | 585 W/m² | - |
| 1777670469 | 12.78° C | 36% | 964.8 hPa | 0 mm | - | 743 W/m² | - |
| 1777670166 | 12.22° C | 36% | 964.9 hPa | 0 mm | - | 772 W/m² | - |
| 1777669866 | 12.78° C | 36% | 965 hPa | 0 mm | - | 455 W/m² | - |
| 1777669565 | 12.22° C | 37% | 964.9 hPa | 0 mm | - | 830 W/m² | - |
* Rain latest hour (hover to see other rain measurements)
** Current wind speed in m/s (hover to see current wind gust speed)